sensor_id;sensor_type;location;lat;lon;timestamp;P1;durP1;ratioP1;P2;durP2;ratioP2
52438;SDS011;38359;53.150;6.504;2023-07-31T00:07:59;6.57;;;5.43;;
52438;SDS011;38359;53.150;6.504;2023-07-31T00:18:31;8.25;;;4.28;;
52438;SDS011;38359;53.150;6.504;2023-07-31T00:28:56;7.10;;;3.88;;
52438;SDS011;38359;53.150;6.504;2023-07-31T00:39:22;8.52;;;4.30;;
52438;SDS011;38359;53.150;6.504;2023-07-31T00:49:48;7.90;;;4.38;;
52438;SDS011;38359;53.150;6.504;2023-07-31T01:00:14;6.68;;;4.07;;
52438;SDS011;38359;53.150;6.504;2023-07-31T01:10:48;5.60;;;3.72;;
52438;SDS011;38359;53.150;6.504;2023-07-31T01:32:28;5.25;;;3.58;;
52438;SDS011;38359;53.150;6.504;2023-07-31T01:42:54;5.43;;;3.40;;
52438;SDS011;38359;53.150;6.504;2023-07-31T01:53:20;10.30;;;2.38;;
52438;SDS011;38359;53.150;6.504;2023-07-31T02:03:46;2.65;;;2.08;;
52438;SDS011;38359;53.150;6.504;2023-07-31T02:14:11;2.97;;;1.73;;
52438;SDS011;38359;53.150;6.504;2023-07-31T02:24:44;1.55;;;1.10;;
52438;SDS011;38359;53.150;6.504;2023-07-31T02:35:10;5.70;;;2.15;;
52438;SDS011;38359;53.150;6.504;2023-07-31T02:45:40;8.55;;;1.23;;
52438;SDS011;38359;53.150;6.504;2023-07-31T02:56:06;2.45;;;1.40;;
52438;SDS011;38359;53.150;6.504;2023-07-31T03:06:31;3.10;;;1.30;;
52438;SDS011;38359;53.150;6.504;2023-07-31T03:16:59;3.25;;;1.00;;
52438;SDS011;38359;53.150;6.504;2023-07-31T03:27:31;13.40;;;1.17;;
52438;SDS011;38359;53.150;6.504;2023-07-31T03:37:57;2.03;;;1.10;;
52438;SDS011;38359;53.150;6.504;2023-07-31T03:48:23;3.72;;;1.48;;
52438;SDS011;38359;53.150;6.504;2023-07-31T03:58:48;3.97;;;1.35;;
52438;SDS011;38359;53.150;6.504;2023-07-31T04:09:21;2.67;;;1.40;;
52438;SDS011;38359;53.150;6.504;2023-07-31T04:19:47;4.70;;;1.38;;
52438;SDS011;38359;53.150;6.504;2023-07-31T04:30:19;3.30;;;1.65;;
52438;SDS011;38359;53.150;6.504;2023-07-31T04:40:45;2.28;;;1.38;;
52438;SDS011;38359;53.150;6.504;2023-07-31T04:51:17;4.47;;;1.33;;
52438;SDS011;38359;53.150;6.504;2023-07-31T05:01:43;3.25;;;1.30;;
52438;SDS011;38359;53.150;6.504;2023-07-31T05:12:10;5.90;;;1.60;;
52438;SDS011;38359;53.150;6.504;2023-07-31T05:22:42;1.75;;;1.60;;
52438;SDS011;38359;53.150;6.504;2023-07-31T05:33:08;3.05;;;1.65;;
52438;SDS011;38359;53.150;6.504;2023-07-31T05:43:34;4.50;;;2.10;;
52438;SDS011;38359;53.150;6.504;2023-07-31T05:54:00;4.55;;;2.80;;
52438;SDS011;38359;53.150;6.504;2023-07-31T06:04:25;9.50;;;3.42;;
52438;SDS011;38359;53.150;6.504;2023-07-31T06:14:53;19.58;;;5.15;;
52438;SDS011;38359;53.150;6.504;2023-07-31T06:25:18;23.45;;;7.28;;
52438;SDS011;38359;53.150;6.504;2023-07-31T06:35:50;30.30;;;8.13;;
52438;SDS011;38359;53.150;6.504;2023-07-31T06:46:16;39.95;;;10.05;;
52438;SDS011;38359;53.150;6.504;2023-07-31T06:56:42;38.75;;;9.23;;
52438;SDS011;38359;53.150;6.504;2023-07-31T07:07:08;37.47;;;9.57;;
52438;SDS011;38359;53.150;6.504;2023-07-31T07:17:34;37.28;;;10.18;;
52438;SDS011;38359;53.150;6.504;2023-07-31T07:28:06;41.17;;;10.90;;
52438;SDS011;38359;53.150;6.504;2023-07-31T07:38:31;23.23;;;5.82;;
52438;SDS011;38359;53.150;6.504;2023-07-31T07:48:57;8.82;;;3.50;;
52438;SDS011;38359;53.150;6.504;2023-07-31T07:59:26;5.65;;;1.92;;
52438;SDS011;38359;53.150;6.504;2023-07-31T08:09:59;6.03;;;2.20;;
52438;SDS011;38359;53.150;6.504;2023-07-31T08:20:30;4.68;;;2.40;;
52438;SDS011;38359;53.150;6.504;2023-07-31T08:30:56;7.25;;;1.88;;
52438;SDS011;38359;53.150;6.504;2023-07-31T08:41:22;4.07;;;2.00;;
52438;SDS011;38359;53.150;6.504;2023-07-31T08:51:49;4.18;;;1.65;;
52438;SDS011;38359;53.150;6.504;2023-07-31T09:02:15;3.25;;;1.65;;
52438;SDS011;38359;53.150;6.504;2023-07-31T09:12:42;3.22;;;1.80;;
52438;SDS011;38359;53.150;6.504;2023-07-31T09:23:10;4.38;;;1.40;;
52438;SDS011;38359;53.150;6.504;2023-07-31T09:33:54;1.75;;;1.15;;
52438;SDS011;38359;53.150;6.504;2023-07-31T09:44:21;1.35;;;0.90;;
52438;SDS011;38359;53.150;6.504;2023-07-31T09:55:09;1.25;;;0.80;;
52438;SDS011;38359;53.150;6.504;2023-07-31T10:05:36;0.50;;;0.40;;
52438;SDS011;38359;53.150;6.504;2023-07-31T10:16:06;1.80;;;0.80;;
52438;SDS011;38359;53.150;6.504;2023-07-31T10:26:39;1.67;;;0.60;;
52438;SDS011;38359;53.150;6.504;2023-07-31T10:37:21;1.37;;;0.40;;
52438;SDS011;38359;53.150;6.504;2023-07-31T10:48:00;0.50;;;0.40;;
52438;SDS011;38359;53.150;6.504;2023-07-31T10:58:28;0.43;;;0.30;;
52438;SDS011;38359;53.150;6.504;2023-07-31T11:09:00;0.80;;;0.50;;
52438;SDS011;38359;53.150;6.504;2023-07-31T11:19:26;0.82;;;0.63;;
52438;SDS011;38359;53.150;6.504;2023-07-31T11:30:01;0.70;;;0.60;;
52438;SDS011;38359;53.150;6.504;2023-07-31T11:40:28;1.25;;;0.65;;
52438;SDS011;38359;53.150;6.504;2023-07-31T11:51:09;1.92;;;0.77;;
52438;SDS011;38359;53.150;6.504;2023-07-31T12:01:45;2.50;;;0.93;;
52438;SDS011;38359;53.150;6.504;2023-07-31T12:12:25;2.78;;;1.20;;
52438;SDS011;38359;53.150;6.504;2023-07-31T12:22:57;3.17;;;1.40;;
52438;SDS011;38359;53.150;6.504;2023-07-31T12:33:23;3.90;;;1.20;;
52438;SDS011;38359;53.150;6.504;2023-07-31T12:43:49;9.73;;;1.95;;
52438;SDS011;38359;53.150;6.504;2023-07-31T12:54:15;8.95;;;2.15;;
52438;SDS011;38359;53.150;6.504;2023-07-31T13:04:40;16.67;;;2.50;;
52438;SDS011;38359;53.150;6.504;2023-07-31T13:15:06;8.00;;;2.97;;
52438;SDS011;38359;53.150;6.504;2023-07-31T13:25:32;18.05;;;3.60;;
52438;SDS011;38359;53.150;6.504;2023-07-31T13:36:05;8.07;;;2.80;;
52438;SDS011;38359;53.150;6.504;2023-07-31T13:46:31;12.40;;;3.22;;
52438;SDS011;38359;53.150;6.504;2023-07-31T13:57:03;14.95;;;3.65;;
52438;SDS011;38359;53.150;6.504;2023-07-31T14:07:31;15.80;;;4.07;;
52438;SDS011;38359;53.150;6.504;2023-07-31T14:17:57;10.93;;;3.28;;
52438;SDS011;38359;53.150;6.504;2023-07-31T14:28:36;13.90;;;3.60;;
52438;SDS011;38359;53.150;6.504;2023-07-31T14:39:02;13.27;;;3.67;;
52438;SDS011;38359;53.150;6.504;2023-07-31T14:49:34;16.25;;;4.22;;
52438;SDS011;38359;53.150;6.504;2023-07-31T15:00:00;16.15;;;4.25;;
52438;SDS011;38359;53.150;6.504;2023-07-31T15:10:26;17.17;;;4.35;;
52438;SDS011;38359;53.150;6.504;2023-07-31T15:20:53;20.80;;;4.22;;
52438;SDS011;38359;53.150;6.504;2023-07-31T15:31:25;17.75;;;3.55;;
52438;SDS011;38359;53.150;6.504;2023-07-31T15:41:51;13.45;;;3.95;;
52438;SDS011;38359;53.150;6.504;2023-07-31T15:52:17;13.43;;;3.22;;
52438;SDS011;38359;53.150;6.504;2023-07-31T16:02:43;13.52;;;3.50;;
52438;SDS011;38359;53.150;6.504;2023-07-31T16:13:09;11.02;;;3.25;;
52438;SDS011;38359;53.150;6.504;2023-07-31T16:23:35;18.88;;;3.10;;
52438;SDS011;38359;53.150;6.504;2023-07-31T16:34:08;9.57;;;3.03;;
52438;SDS011;38359;53.150;6.504;2023-07-31T16:44:34;11.77;;;3.38;;
52438;SDS011;38359;53.150;6.504;2023-07-31T16:55:00;11.20;;;3.17;;
52438;SDS011;38359;53.150;6.504;2023-07-31T17:05:26;9.82;;;2.85;;
52438;SDS011;38359;53.150;6.504;2023-07-31T17:15:52;17.13;;;3.60;;
52438;SDS011;38359;53.150;6.504;2023-07-31T17:26:24;11.85;;;3.17;;
52438;SDS011;38359;53.150;6.504;2023-07-31T17:36:50;15.73;;;4.00;;
52438;SDS011;38359;53.150;6.504;2023-07-31T17:47:16;12.52;;;2.75;;
52438;SDS011;38359;53.150;6.504;2023-07-31T17:57:43;10.23;;;2.72;;
52438;SDS011;38359;53.150;6.504;2023-07-31T18:08:09;13.13;;;3.08;;
52438;SDS011;38359;53.150;6.504;2023-07-31T18:18:35;13.48;;;3.97;;
52438;SDS011;38359;53.150;6.504;2023-07-31T18:29:08;12.23;;;3.50;;
52438;SDS011;38359;53.150;6.504;2023-07-31T18:39:34;10.75;;;3.05;;
52438;SDS011;38359;53.150;6.504;2023-07-31T18:50:00;16.98;;;4.05;;
52438;SDS011;38359;53.150;6.504;2023-07-31T19:00:26;13.50;;;2.95;;
52438;SDS011;38359;53.150;6.504;2023-07-31T19:10:52;15.68;;;3.40;;
52438;SDS011;38359;53.150;6.504;2023-07-31T19:21:18;16.38;;;4.10;;
52438;SDS011;38359;53.150;6.504;2023-07-31T19:31:50;21.40;;;3.83;;
52438;SDS011;38359;53.150;6.504;2023-07-31T19:42:15;18.60;;;4.38;;
52438;SDS011;38359;53.150;6.504;2023-07-31T19:52:42;15.73;;;5.07;;
52438;SDS011;38359;53.150;6.504;2023-07-31T20:03:08;20.90;;;5.53;;
52438;SDS011;38359;53.150;6.504;2023-07-31T20:13:34;18.23;;;4.63;;
52438;SDS011;38359;53.150;6.504;2023-07-31T20:24:07;17.17;;;4.80;;
52438;SDS011;38359;53.150;6.504;2023-07-31T20:34:34;17.58;;;4.88;;
52438;SDS011;38359;53.150;6.504;2023-07-31T20:45:06;14.75;;;5.07;;
52438;SDS011;38359;53.150;6.504;2023-07-31T20:55:32;20.80;;;4.32;;
52438;SDS011;38359;53.150;6.504;2023-07-31T21:05:58;13.02;;;3.58;;
52438;SDS011;38359;53.150;6.504;2023-07-31T21:16:25;15.63;;;4.05;;
52438;SDS011;38359;53.150;6.504;2023-07-31T21:26:51;17.23;;;3.45;;
52438;SDS011;38359;53.150;6.504;2023-07-31T21:37:23;14.27;;;3.45;;
52438;SDS011;38359;53.150;6.504;2023-07-31T21:47:49;16.05;;;4.00;;
52438;SDS011;38359;53.150;6.504;2023-07-31T21:58:15;13.45;;;4.32;;
52438;SDS011;38359;53.150;6.504;2023-07-31T22:08:40;19.48;;;4.72;;
52438;SDS011;38359;53.150;6.504;2023-07-31T22:19:06;25.65;;;5.13;;
52438;SDS011;38359;53.150;6.504;2023-07-31T22:29:45;20.63;;;4.60;;
52438;SDS011;38359;53.150;6.504;2023-07-31T22:40:11;21.50;;;4.38;;
52438;SDS011;38359;53.150;6.504;2023-07-31T22:50:37;18.40;;;4.90;;
52438;SDS011;38359;53.150;6.504;2023-07-31T23:01:06;28.30;;;5.05;;
52438;SDS011;38359;53.150;6.504;2023-07-31T23:11:34;30.50;;;5.72;;
52438;SDS011;38359;53.150;6.504;2023-07-31T23:21:59;27.85;;;6.72;;
52438;SDS011;38359;53.150;6.504;2023-07-31T23:32:32;31.27;;;6.85;;
52438;SDS011;38359;53.150;6.504;2023-07-31T23:42:58;25.20;;;6.20;;
52438;SDS011;38359;53.150;6.504;2023-07-31T23:53:24;25.73;;;7.13;;
